Time;durP1;ratioP1;P1;durP2;ratioP2;P2;SDS_P1;SDS_P2;PMS_P1;PMS_P2;Temp;Humidity;BMP_temperature;BMP_pressure;BME280_temperature;BME280_humidity;BME280_pressure;Samples;Min_cycle;Max_cycle;Signal;HPM_P1;HPM_P2
2022/09/05 00:00:18;;;;;;;3.63;2.80;;;17.40;99.90;;;;;;6066077;23;20679;-62
2022/09/05 00:03:16;;;;;;;3.10;2.90;;;17.40;99.90;;;;;;6065944;23;20553;-62
2022/09/05 00:06:05;;;;;;;3.20;3.00;;;17.40;99.90;;;;;;6066101;23;20251;-62
2022/09/05 00:08:46;;;;;;;2.97;2.87;;;17.40;99.90;;;;;;6041122;23;20280;-63
2022/09/05 00:11:19;;;;;;;2.87;2.67;;;17.40;99.90;;;;;;6066433;23;20251;-62
2022/09/05 00:14:32;;;;;;;3.33;2.70;;;17.40;99.90;;;;;;6066046;23;20168;-63
2022/09/05 00:17:32;;;;;;;3.80;2.77;;;17.40;99.90;;;;;;6066275;23;20168;-62
2022/09/05 00:20:29;;;;;;;2.80;2.50;;;17.40;99.90;;;;;;6066865;23;20658;-62
2022/09/05 00:23:33;;;;;;;3.23;2.67;;;17.40;99.90;;;;;;6065013;23;20625;-63
2022/09/05 00:26:35;;;;;;;3.03;2.73;;;17.40;99.90;;;;;;6065991;23;20171;-62
2022/09/05 00:29:16;;;;;;;4.27;2.57;;;17.40;99.90;;;;;;6066565;23;20572;-62
2022/09/05 00:32:14;;;;;;;3.00;2.80;;;17.40;99.90;;;;;;6065579;23;20188;-63
2022/09/05 00:35:02;;;;;;;4.40;2.97;;;17.40;99.90;;;;;;6065462;23;20172;-62
2022/09/05 00:37:36;;;;;;;3.20;2.90;;;17.40;99.90;;;;;;6040622;23;20832;-63
2022/09/05 00:40:27;;;;;;;3.30;3.10;;;17.30;99.90;;;;;;6065501;23;20213;-62
2022/09/05 00:42:58;;;;;;;3.00;2.70;;;17.30;99.90;;;;;;6039296;23;20266;-62
2022/09/05 00:45:35;;;;;;;3.40;3.10;;;17.30;99.90;;;;;;6065822;23;20155;-63
2022/09/05 00:48:16;;;;;;;3.37;3.07;;;17.40;99.90;;;;;;6064375;23;20194;-63
2022/09/05 00:51:01;;;;;;;4.30;2.73;;;17.40;99.90;;;;;;6066166;23;20614;-63
2022/09/05 00:53:40;;;;;;;2.60;2.50;;;17.50;99.90;;;;;;6064971;23;20215;-63
2022/09/05 00:56:33;;;;;;;4.77;3.00;;;17.50;99.90;;;;;;6065925;23;20231;-62
2022/09/05 00:59:23;;;;;;;5.83;2.70;;;17.60;99.90;;;;;;6037659;23;20180;-62
2022/09/05 01:01:59;;;;;;;4.83;2.70;;;17.60;99.90;;;;;;6041302;23;20508;-62
2022/09/05 01:04:39;;;;;;;7.83;2.80;;;17.60;99.90;;;;;;6066185;23;20169;-63
2022/09/05 01:07:28;;;;;;;3.10;2.83;;;17.70;99.90;;;;;;6005980;23;20688;-63
2022/09/05 01:10:12;;;;;;;4.07;2.80;;;17.70;99.90;;;;;;6007870;23;20250;-62
2022/09/05 01:13:06;;;;;;;3.13;2.53;;;17.70;99.90;;;;;;6008509;23;20217;-63
2022/09/05 01:15:43;;;;;;;4.80;2.70;;;17.70;99.90;;;;;;5996276;23;20255;-62
2022/09/05 01:18:34;;;;;;;2.97;2.77;;;17.70;99.90;;;;;;6009064;23;20169;-62
2022/09/05 01:21:34;;;;;;;2.67;2.57;;;17.70;99.90;;;;;;6007944;23;20173;-62
2022/09/05 01:24:31;;;;;;;5.77;3.03;;;17.70;99.90;;;;;;6009973;23;20155;-63
2022/09/05 01:27:41;;;;;;;4.30;2.87;;;17.70;99.90;;;;;;6004191;23;20204;-63
2022/09/05 01:30:39;;;;;;;3.03;2.70;;;17.70;99.90;;;;;;6007489;23;20462;-62
2022/09/05 01:33:19;;;;;;;3.37;3.03;;;17.70;99.90;;;;;;6008757;23;20187;-62
2022/09/05 01:36:14;;;;;;;3.17;2.93;;;17.70;99.90;;;;;;6007737;23;20243;-63
2022/09/05 01:38:49;;;;;;;5.27;2.73;;;17.70;99.90;;;;;;6007928;23;20199;-62
2022/09/05 01:41:44;;;;;;;2.90;2.80;;;17.60;99.90;;;;;;6007604;23;20255;-62
2022/09/05 01:44:29;;;;;;;3.73;2.80;;;17.60;99.90;;;;;;6007709;23;20243;-62
2022/09/05 01:47:15;;;;;;;2.80;2.70;;;17.50;99.90;;;;;;6008598;23;20168;-62
2022/09/05 01:50:10;;;;;;;3.30;2.80;;;17.40;99.90;;;;;;6007675;23;20173;-63
2022/09/05 01:53:08;;;;;;;2.93;2.80;;;17.30;99.90;;;;;;6005283;23;20258;-62
2022/09/05 01:55:53;;;;;;;3.03;2.93;;;17.20;99.90;;;;;;6004831;23;20195;-63
2022/09/05 01:58:49;;;;;;;3.07;2.87;;;17.10;99.90;;;;;;6005554;23;20693;-63
2022/09/05 02:01:27;;;;;;;3.77;2.97;;;17.00;99.90;;;;;;6007956;23;20664;-62
2022/09/05 02:04:32;;;;;;;3.07;2.97;;;17.00;99.90;;;;;;6007877;23;20167;-62
2022/09/05 02:07:06;;;;;;;3.17;2.97;;;16.90;99.90;;;;;;6018089;23;20281;-62
2022/09/05 02:10:33;;;;;;;4.80;3.20;;;16.80;99.90;;;;;;6039895;23;20178;-62
2022/09/05 02:13:15;;;;;;;4.27;3.30;;;16.80;99.90;;;;;;6008068;23;20284;-62
2022/09/05 02:15:48;;;;;;;3.13;3.00;;;16.70;99.90;;;;;;6065623;23;20236;-62
2022/09/05 02:18:37;;;;;;;3.30;3.03;;;16.70;99.90;;;;;;6064050;23;20182;-63
2022/09/05 02:21:15;;;;;;;3.30;3.10;;;16.60;99.90;;;;;;6038743;23;20165;-62
2022/09/05 02:23:50;;;;;;;4.53;2.93;;;16.60;99.90;;;;;;6062927;23;20154;-62
2022/09/05 02:26:24;;;;;;;3.97;2.93;;;16.50;99.90;;;;;;6064038;23;20257;-62
2022/09/05 02:28:59;;;;;;;3.20;3.00;;;16.40;99.90;;;;;;6039947;23;20172;-62
2022/09/05 02:31:40;;;;;;;3.53;2.97;;;16.40;99.90;;;;;;6064507;23;20263;-63
2022/09/05 02:34:13;;;;;;;4.60;3.27;;;16.40;99.90;;;;;;6063354;23;20180;-62
2022/09/05 02:36:46;;;;;;;3.50;3.20;;;16.40;99.90;;;;;;6039147;23;20197;-63
2022/09/05 02:39:21;;;;;;;3.67;3.33;;;16.40;99.90;;;;;;6064547;23;20194;-62
2022/09/05 02:42:19;;;;;;;3.90;3.07;;;16.30;99.90;;;;;;6038570;23;20179;-62
2022/09/05 02:45:22;;;;;;;3.30;3.00;;;16.40;99.90;;;;;;6066799;23;20156;-62
2022/09/05 02:48:10;;;;;;;3.47;2.93;;;16.40;99.90;;;;;;6067607;23;20153;-63
2022/09/05 02:51:09;;;;;;;3.70;3.40;;;16.30;99.90;;;;;;6042033;23;20170;-62
2022/09/05 02:54:03;;;;;;;3.63;3.33;;;16.30;99.90;;;;;;6065693;23;20185;-63
2022/09/05 02:57:12;;;;;;;5.07;3.17;;;16.20;99.90;;;;;;6065235;23;20225;-62
2022/09/05 03:00:09;;;;;;;3.77;3.47;;;16.20;99.90;;;;;;6067020;23;20177;-62
2022/09/05 03:03:17;;;;;;;4.93;3.33;;;16.20;99.90;;;;;;6064180;23;20253;-62
2022/09/05 03:05:55;;;;;;;3.57;3.37;;;16.10;99.90;;;;;;6066436;23;20168;-62
2022/09/05 03:08:57;;;;;;;3.30;3.00;;;16.10;99.90;;;;;;6065499;23;20225;-63
2022/09/05 03:12:21;;;;;;;3.50;3.30;;;16.10;99.90;;;;;;6064771;23;20170;-62
2022/09/05 03:15:23;;;;;;;3.63;3.37;;;16.10;99.90;;;;;;6047721;23;20280;-62
2022/09/05 03:18:25;;;;;;;4.50;3.40;;;16.10;99.90;;;;;;6066151;23;20500;-62
2022/09/05 03:21:39;;;;;;;5.10;3.40;;;16.10;99.90;;;;;;6065506;23;20165;-62
2022/09/05 03:24:40;;;;;;;5.03;3.47;;;16.00;99.90;;;;;;6013854;23;20176;-63
2022/09/05 03:28:19;;;;;;;4.97;3.30;;;16.10;99.90;;;;;;6065731;23;20490;-62
2022/09/05 03:31:03;;;;;;;3.77;3.47;;;16.20;99.90;;;;;;6040870;23;20172;-63
2022/09/05 03:33:47;;;;;;;4.20;3.43;;;16.40;99.90;;;;;;6065762;23;20196;-62
2022/09/05 03:36:50;;;;;;;3.47;3.27;;;16.60;99.90;;;;;;6038992;23;20172;-62
2022/09/05 03:39:52;;;;;;;3.53;3.20;;;16.70;99.90;;;;;;6064037;23;20549;-63
2022/09/05 03:42:52;;;;;;;3.37;3.17;;;16.80;99.90;;;;;;6019548;23;20568;-62
2022/09/05 03:45:52;;;;;;;5.70;2.93;;;16.80;99.90;;;;;;6057807;23;20255;-62
2022/09/05 03:48:30;;;;;;;4.90;3.40;;;16.80;99.90;;;;;;6064233;23;20235;-62
2022/09/05 03:51:19;;;;;;;3.87;3.53;;;16.90;99.90;;;;;;6065182;23;20264;-62
2022/09/05 03:54:37;;;;;;;3.17;3.03;;;17.00;99.90;;;;;;6065031;23;20189;-63
2022/09/05 03:57:43;;;;;;;3.60;3.30;;;17.00;99.90;;;;;;6064967;23;20168;-62
2022/09/05 04:00:21;;;;;;;3.40;3.10;;;17.10;99.90;;;;;;6040176;23;20165;-63
2022/09/05 04:03:21;;;;;;;4.43;3.10;;;17.10;99.90;;;;;;6064552;23;20239;-62
2022/09/05 04:06:17;;;;;;;3.03;2.73;;;17.10;99.90;;;;;;6039968;23;20711;-62
2022/09/05 04:09:14;;;;;;;3.53;3.23;;;17.10;99.90;;;;;;6065806;23;20502;-62
2022/09/05 04:12:15;;;;;;;3.47;3.27;;;17.10;99.90;;;;;;6038514;23;20180;-62
2022/09/05 04:14:49;;;;;;;3.50;3.20;;;17.10;99.90;;;;;;6039791;23;20276;-62
2022/09/05 04:17:26;;;;;;;3.33;3.10;;;17.00;99.90;;;;;;6039869;23;20174;-63
2022/09/05 04:20:02;;;;;;;3.10;2.90;;;17.00;99.90;;;;;;6063870;23;20168;-62
2022/09/05 04:22:41;;;;;;;4.17;3.20;;;17.00;99.90;;;;;;6040307;23;20203;-62
2022/09/05 04:25:16;;;;;;;5.13;3.10;;;17.00;99.90;;;;;;6064612;23;20686;-62
2022/09/05 04:27:53;;;;;;;4.13;3.40;;;17.00;99.90;;;;;;6065613;23;20177;-62
2022/09/05 04:30:37;;;;;;;5.53;3.30;;;17.00;99.90;;;;;;6064899;23;20156;-63
2022/09/05 04:33:18;;;;;;;4.27;3.40;;;17.00;99.90;;;;;;6066281;23;20197;-62
2022/09/05 04:35:58;;;;;;;4.80;3.33;;;17.00;99.90;;;;;;6064908;23;20248;-62
2022/09/05 04:38:39;;;;;;;4.40;3.20;;;17.00;99.90;;;;;;6065800;23;20160;-62
2022/09/05 04:41:10;;;;;;;4.20;3.13;;;17.10;99.90;;;;;;6064400;23;20197;-62
2022/09/05 04:43:42;;;;;;;3.33;3.13;;;17.20;99.90;;;;;;6066459;23;20246;-62
2022/09/05 04:46:19;;;;;;;3.53;3.13;;;17.20;99.90;;;;;;6065666;23;20625;-62
2022/09/05 04:48:56;;;;;;;3.23;2.97;;;17.20;99.90;;;;;;6065097;23;20180;-62
2022/09/05 04:51:53;;;;;;;6.83;3.37;;;17.20;99.90;;;;;;6064740;23;20334;-62
2022/09/05 04:54:40;;;;;;;4.17;3.37;;;17.20;99.90;;;;;;6063850;23;20900;-62
2022/09/05 04:57:22;;;;;;;3.63;3.27;;;17.30;99.90;;;;;;6065120;23;20269;-63
2022/09/05 04:59:56;;;;;;;3.73;3.30;;;17.30;99.90;;;;;;6065275;23;20166;-62
2022/09/05 05:02:48;;;;;;;5.40;3.47;;;17.30;99.90;;;;;;6063464;23;20177;-62
2022/09/05 05:05:56;;;;;;;7.30;3.47;;;17.30;99.90;;;;;;6040462;23;20181;-62
2022/09/05 05:08:52;;;;;;;3.60;3.30;;;17.30;99.90;;;;;;6064361;23;20202;-62
2022/09/05 05:11:38;;;;;;;4.80;3.50;;;17.40;99.90;;;;;;6063786;23;20864;-63
2022/09/05 05:14:31;;;;;;;5.53;3.40;;;17.40;99.90;;;;;;6062201;23;20197;-62
2022/09/05 05:17:32;;;;;;;7.70;3.60;;;17.50;99.90;;;;;;6063794;23;20174;-62
2022/09/05 05:20:24;;;;;;;6.27;3.43;;;17.50;99.90;;;;;;6063728;23;20180;-62
2022/09/05 05:23:15;;;;;;;7.47;3.57;;;17.40;99.90;;;;;;6064511;23;20183;-63
2022/09/05 05:25:50;;;;;;;4.23;3.20;;;17.50;99.90;;;;;;6063461;23;20188;-62
2022/09/05 05:28:26;;;;;;;7.33;3.37;;;17.60;99.90;;;;;;6063245;23;20257;-63
2022/09/05 05:30:57;;;;;;;3.53;2.90;;;17.70;99.90;;;;;;6064244;23;20187;-62
2022/09/05 05:33:33;;;;;;;6.60;3.60;;;17.70;99.90;;;;;;6064606;23;20195;-62
2022/09/05 05:36:04;;;;;;;4.63;3.43;;;17.80;99.90;;;;;;6039820;23;20267;-62
2022/09/05 05:38:39;;;;;;;4.97;3.17;;;17.90;99.90;;;;;;6039267;23;20810;-63
2022/09/05 05:41:19;;;;;;;6.10;3.40;;;18.00;99.90;;;;;;6039285;23;20160;-62
2022/09/05 05:43:49;;;;;;;5.60;3.00;;;18.10;99.90;;;;;;6064761;23;20263;-62
2022/09/05 05:46:30;;;;;;;5.10;3.00;;;18.20;99.90;;;;;;6064747;23;20172;-62
2022/09/05 05:49:22;;;;;;;3.10;2.90;;;18.30;99.90;;;;;;6063007;23;20171;-62
2022/09/05 05:52:04;;;;;;;5.03;3.03;;;18.40;99.90;;;;;;6063834;23;20270;-62
2022/09/05 05:54:41;;;;;;;6.23;2.90;;;18.50;99.90;;;;;;6039501;23;20259;-62
2022/09/05 05:57:47;;;;;;;5.90;3.00;;;18.60;99.90;;;;;;6065975;23;20246;-63
2022/09/05 06:00:21;;;;;;;6.17;2.70;;;18.70;99.90;;;;;;6036866;23;20258;-62
2022/09/05 06:03:31;;;;;;;7.90;3.30;;;18.90;99.90;;;;;;6066056;23;20184;-62
2022/09/05 06:06:12;;;;;;;3.90;3.00;;;19.00;99.90;;;;;;6066723;23;20177;-63
2022/09/05 06:09:21;;;;;;;2.83;2.70;;;19.00;99.90;;;;;;6041565;23;20287;-62
2022/09/05 06:13:01;;;;;;;3.13;2.93;;;19.10;99.90;;;;;;6026791;23;20176;-62
2022/09/05 06:16:22;;;;;;;4.33;2.80;;;19.30;99.90;;;;;;6033738;23;20568;-62
2022/09/05 06:19:33;;;;;;;3.30;3.00;;;19.50;99.90;;;;;;6066483;23;20478;-63
2022/09/05 06:22:38;;;;;;;6.73;2.50;;;19.70;99.90;;;;;;6068499;23;20618;-63
2022/09/05 06:25:50;;;;;;;3.43;3.07;;;19.80;99.90;;;;;;6067567;23;20563;-63
2022/09/05 06:28:29;;;;;;;3.13;2.57;;;20.00;99.90;;;;;;6068111;23;20577;-63
2022/09/05 06:31:18;;;;;;;3.87;2.67;;;20.30;99.90;;;;;;6066543;23;20207;-62
2022/09/05 06:34:13;;;;;;;3.13;2.77;;;20.50;99.90;;;;;;6042269;23;20188;-62
2022/09/05 06:37:12;;;;;;;3.03;2.50;;;20.60;99.90;;;;;;6040234;23;20175;-62
2022/09/05 06:40:02;;;;;;;4.10;2.60;;;20.70;99.90;;;;;;6067666;23;20178;-62
2022/09/05 06:42:42;;;;;;;3.60;2.50;;;20.90;99.90;;;;;;6067013;23;20243;-62
2022/09/05 06:45:33;;;;;;;2.80;2.60;;;21.00;99.90;;;;;;6066670;23;20681;-62
2022/09/05 06:48:10;;;;;;;5.43;2.57;;;21.20;99.90;;;;;;6066662;23;20236;-62
2022/09/05 06:51:28;;;;;;;5.13;2.93;;;21.20;99.90;;;;;;6065518;23;20192;-63
2022/09/05 06:54:32;;;;;;;3.83;2.60;;;21.20;99.90;;;;;;5949594;24;20234;-62
2022/09/05 06:57:24;;;;;;;3.87;3.07;;;21.30;99.90;;;;;;6067424;23;20195;-62
2022/09/05 07:00:06;;;;;;;3.07;2.77;;;21.50;99.90;;;;;;6042481;23;20258;-62
2022/09/05 07:03:01;;;;;;;3.33;2.60;;;21.60;99.90;;;;;;6041818;23;20202;-62
2022/09/05 07:05:36;;;;;;;3.47;2.63;;;21.60;99.90;;;;;;6067654;23;20168;-62
2022/09/05 07:08:25;;;;;;;4.43;3.10;;;21.70;99.90;;;;;;6066456;23;20203;-62
2022/09/05 07:11:07;;;;;;;2.93;2.73;;;21.80;99.90;;;;;;6067492;23;20669;-63
2022/09/05 07:13:56;;;;;;;3.03;2.50;;;22.00;99.90;;;;;;6067905;23;20636;-62
2022/09/05 07:16:38;;;;;;;6.50;2.97;;;22.20;99.90;;;;;;6067105;23;20499;-62
2022/09/05 07:19:25;;;;;;;2.83;2.63;;;22.30;99.90;;;;;;6066187;23;20223;-62
2022/09/05 07:22:22;;;;;;;8.30;2.60;;;22.30;99.90;;;;;;6066808;23;20172;-63
2022/09/05 07:25:15;;;;;;;5.20;2.77;;;22.20;99.90;;;;;;6067318;23;20839;-63
2022/09/05 07:27:53;;;;;;;6.87;2.73;;;22.30;99.90;;;;;;6064086;23;20171;-62
2022/09/05 07:30:48;;;;;;;3.77;3.20;;;22.20;99.90;;;;;;6067405;23;20172;-62
2022/09/05 07:33:20;;;;;;;3.67;2.40;;;22.20;99.90;;;;;;6066653;23;20306;-63
2022/09/05 07:35:51;;;;;;;5.07;2.80;;;22.40;99.90;;;;;;6067725;23;20196;-62
2022/09/05 07:38:24;;;;;;;3.97;3.00;;;22.60;99.90;;;;;;6040611;23;20172;-62
2022/09/05 07:41:21;;;;;;;4.50;2.67;;;22.90;99.90;;;;;;6039692;23;20164;-63
2022/09/05 07:43:54;;;;;;;2.57;2.33;;;23.00;99.90;;;;;;6042456;23;20167;-63
2022/09/05 07:46:25;;;;;;;5.37;2.73;;;23.20;99.90;;;;;;6066659;23;20240;-63
2022/09/05 07:48:58;;;;;;;3.47;2.47;;;23.40;99.90;;;;;;6067721;23;20224;-63
2022/09/05 07:51:30;;;;;;;5.13;2.80;;;23.50;99.90;;;;;;6065686;23;20537;-62
2022/09/05 07:54:24;;;;;;;6.73;2.57;;;23.60;99.90;;;;;;6066921;23;20165;-62
2022/09/05 07:57:18;;;;;;;7.53;2.30;;;24.00;99.90;;;;;;6064571;23;20203;-62
2022/09/05 08:00:05;;;;;;;4.87;2.40;;;24.20;99.90;;;;;;6067919;23;20478;-62
2022/09/05 08:02:34;;;;;;;3.97;2.30;;;24.40;99.90;;;;;;6065765;23;20194;-62
2022/09/05 08:05:04;;;;;;;4.67;2.20;;;24.70;99.90;;;;;;6067559;23;20179;-63
2022/09/05 08:07:37;;;;;;;2.40;2.20;;;24.90;99.90;;;;;;6040823;23;20205;-62
2022/09/05 08:10:21;;;;;;;6.33;2.10;;;25.00;99.90;;;;;;6067856;23;20174;-63
2022/09/05 08:13:08;;;;;;;5.73;2.47;;;25.10;99.90;;;;;;6066903;23;20905;-62
2022/09/05 08:15:58;;;;;;;7.60;2.30;;;25.20;99.90;;;;;;6066065;23;20183;-63
2022/09/05 08:18:43;;;;;;;3.23;2.00;;;25.20;99.90;;;;;;6065599;23;20223;-63
2022/09/05 08:21:22;;;;;;;2.20;1.90;;;25.30;99.90;;;;;;6067085;23;20242;-63
2022/09/05 08:24:02;;;;;;;6.67;2.10;;;25.60;99.90;;;;;;6041779;23;20175;-62
2022/09/05 08:26:44;;;;;;;5.07;2.20;;;25.70;99.90;;;;;;6066560;23;20165;-63
2022/09/05 08:29:30;;;;;;;5.83;2.17;;;25.80;99.90;;;;;;6067205;23;20180;-62
2022/09/05 08:32:07;;;;;;;5.43;2.00;;;26.00;99.90;;;;;;6065182;23;20207;-62
2022/09/05 08:34:41;;;;;;;2.03;1.90;;;26.00;99.90;;;;;;6066053;23;20202;-63
2022/09/05 08:37:15;;;;;;;1.90;1.80;;;26.10;99.90;;;;;;6065899;23;20202;-62
2022/09/05 08:39:52;;;;;;;4.90;2.03;;;26.10;99.90;;;;;;6066651;23;20179;-62
2022/09/05 08:42:48;;;;;;;5.13;2.03;;;26.20;99.90;;;;;;6065270;23;20515;-62
2022/09/05 08:45:42;;;;;;;4.60;2.17;;;26.20;99.90;;;;;;6041738;23;20172;-63
2022/09/05 08:48:54;;;;;;;3.53;1.90;;;26.20;99.90;;;;;;6040124;23;20188;-62
2022/09/05 08:51:33;;;;;;;2.90;1.97;;;25.90;99.90;;;;;;6066744;23;20165;-62
2022/09/05 08:54:28;;;;;;;4.80;2.10;;;25.80;99.90;;;;;;6066409;23;20172;-62
2022/09/05 08:57:07;;;;;;;3.97;2.40;;;26.00;99.90;;;;;;6066658;23;20192;-62
2022/09/05 08:59:43;;;;;;;11.37;2.20;;;26.40;99.90;;;;;;6066894;23;20255;-62
2022/09/05 09:03:02;;;;;;;6.47;2.10;;;26.90;99.90;;;;;;6066995;23;20195;-62
2022/09/05 09:06:00;;;;;;;3.60;1.87;;;27.10;99.90;;;;;;6066532;23;20172;-62
2022/09/05 09:08:55;;;;;;;5.03;1.97;;;27.30;99.90;;;;;;6059134;23;20207;-62
2022/09/05 09:11:31;;;;;;;5.03;2.00;;;27.50;99.90;;;;;;6066145;23;20251;-63
2022/09/05 09:14:31;;;;;;;4.40;2.00;;;27.70;99.90;;;;;;6065939;23;20164;-62
2022/09/05 09:17:11;;;;;;;6.37;1.93;;;27.70;99.90;;;;;;6065983;23;20268;-62
2022/09/05 09:19:50;;;;;;;3.13;1.70;;;27.80;99.90;;;;;;6066876;23;20157;-63
2022/09/05 09:22:31;;;;;;;3.23;1.87;;;28.10;99.90;;;;;;6066244;23;20203;-62
2022/09/05 09:25:08;;;;;;;5.00;1.98;;;28.20;99.90;;;;;;6066955;23;20621;-62
2022/09/05 09:28:01;;;;;;;1.73;1.73;;;28.30;99.90;;;;;;6017081;23;20169;-62
2022/09/05 09:30:56;;;;;;;7.43;2.00;;;28.20;99.90;;;;;;6066122;23;20207;-62
2022/09/05 09:33:40;;;;;;;3.03;2.00;;;28.40;99.90;;;;;;6040131;23;20181;-62
2022/09/05 09:36:23;;;;;;;1.60;1.60;;;28.80;99.90;;;;;;6065734;23;20215;-62
2022/09/05 09:39:14;;;;;;;2.03;1.85;;;28.90;99.90;;;;;;6065208;23;20170;-63
2022/09/05 09:42:24;;;;;;;3.13;1.90;;;28.90;99.90;;;;;;6066099;23;20182;-63
2022/09/05 09:45:20;;;;;;;1.88;1.60;;;29.20;99.90;;;;;;6066907;23;20158;-63
2022/09/05 09:48:21;;;;;;;2.40;1.85;;;29.30;99.90;;;;;;6041067;23;20173;-63
2022/09/05 09:51:16;;;;;;;3.15;1.63;;;29.40;99.90;;;;;;6067194;23;20171;-62
2022/09/05 09:53:58;;;;;;;1.88;1.70;;;29.20;99.90;;;;;;6042086;23;20197;-63
2022/09/05 09:56:52;;;;;;;3.13;1.80;;;29.10;99.90;;;;;;6068768;23;20214;-62
2022/09/05 09:59:48;;;;;;;3.33;1.60;;;29.00;99.90;;;;;;6069001;23;20261;-63
2022/09/05 10:03:07;;;;;;;3.05;1.98;;;28.90;99.90;;;;;;6067714;23;20190;-63
2022/09/05 10:06:43;;;;;;;1.60;1.60;;;28.50;99.90;;;;;;6043111;23;20597;-63
2022/09/05 10:09:41;;;;;;;1.80;1.70;;;28.40;99.90;;;;;;6068808;23;20166;-62
2022/09/05 10:13:04;;;;;;;2.65;1.63;;;28.60;99.90;;;;;;6067705;23;20180;-62
2022/09/05 10:15:46;;;;;;;4.38;1.60;;;29.20;99.90;;;;;;6068733;23;20177;-63
2022/09/05 10:18:28;;;;;;;1.58;1.58;;;29.90;99.90;;;;;;6066759;23;20185;-63
2022/09/05 10:21:14;;;;;;;1.75;1.65;;;30.70;99.90;;;;;;6068313;23;20571;-63
2022/09/05 10:24:13;;;;;;;1.45;1.45;;;31.10;99.90;;;;;;6067805;23;20699;-63
2022/09/05 10:27:12;;;;;;;4.88;1.50;;;31.20;99.90;;;;;;6059134;23;20522;-62
2022/09/05 10:29:51;;;;;;;1.58;1.48;;;31.40;99.90;;;;;;6068290;23;20164;-62
2022/09/05 10:32:24;;;;;;;1.30;1.30;;;31.80;99.90;;;;;;6067461;23;20172;-62
2022/09/05 10:35:19;;;;;;;4.05;1.60;;;32.10;99.90;;;;;;6066155;23;20174;-63
2022/09/05 10:37:58;;;;;;;1.80;1.63;;;32.20;99.90;;;;;;6068434;23;20199;-63
2022/09/05 10:40:35;;;;;;;3.28;1.80;;;32.00;99.90;;;;;;6067669;23;20224;-60
2022/09/05 10:43:28;;;;;;;1.63;1.50;;;31.50;99.90;;;;;;6069104;23;20173;-59
2022/09/05 10:46:05;;;;;;;3.30;1.40;;;31.70;99.90;;;;;;6068983;23;20192;-60
2022/09/05 10:48:44;;;;;;;1.55;1.45;;;31.90;99.90;;;;;;6069156;23;20164;-60
2022/09/05 10:51:23;;;;;;;2.30;1.55;;;31.80;99.90;;;;;;6068684;23;20594;-60
2022/09/05 10:54:10;;;;;;;3.80;1.40;;;31.80;99.90;;;;;;6069326;23;20203;-60
2022/09/05 10:56:44;;;;;;;1.33;1.33;;;32.10;99.90;;;;;;6043262;23;20170;-60
2022/09/05 10:59:19;;;;;;;3.53;1.50;;;32.50;99.90;;;;;;6068329;23;20273;-60
2022/09/05 11:02:18;;;;;;;3.70;1.55;;;32.30;99.90;;;;;;6068781;23;20168;-60
2022/09/05 11:05:16;;;;;;;2.15;1.50;;;32.30;99.90;;;;;;6068292;23;20251;-60
2022/09/05 11:07:52;;;;;;;1.60;1.50;;;32.10;99.90;;;;;;6043023;23;20197;-60
2022/09/05 11:10:30;;;;;;;2.03;1.90;;;31.90;99.90;;;;;;6042648;23;20628;-60
2022/09/05 11:13:09;;;;;;;1.70;1.60;;;31.70;99.90;;;;;;6068341;23;20164;-60
2022/09/05 11:15:53;;;;;;;2.78;1.73;;;31.20;99.90;;;;;;6068354;23;20263;-60
2022/09/05 11:18:52;;;;;;;1.65;1.58;;;30.90;99.90;;;;;;6067176;23;20200;-60
2022/09/05 11:21:32;;;;;;;4.25;1.80;;;30.70;99.90;;;;;;6043268;23;20259;-60
2022/09/05 11:24:10;;;;;;;1.67;1.67;;;30.60;99.90;;;;;;6068814;23;20239;-62
2022/09/05 11:26:44;;;;;;;1.70;1.60;;;30.80;99.90;;;;;;6066564;23;20187;-60
2022/09/05 11:29:26;;;;;;;4.03;1.63;;;31.10;99.90;;;;;;6067909;23;20172;-63
2022/09/05 11:32:20;;;;;;;4.25;1.60;;;31.50;99.90;;;;;;6067815;23;20597;-66
2022/09/05 11:35:20;;;;;;;4.30;1.65;;;32.00;99.90;;;;;;6067092;23;20160;-61
2022/09/05 11:38:34;;;;;;;2.03;1.55;;;32.40;99.90;;;;;;6041020;23;20520;-61
2022/09/05 11:41:58;;;;;;;3.10;1.67;;;32.80;99.90;;;;;;6067134;23;20168;-61
2022/09/05 11:44:34;;;;;;;1.95;1.45;;;33.30;99.90;;;;;;6041634;23;20164;-61
2022/09/05 11:47:48;;;;;;;3.13;1.50;;;33.30;99.90;;;;;;6066205;23;20179;-61
2022/09/05 11:50:52;;;;;;;1.70;1.60;;;33.50;99.90;;;;;;6066032;23;20175;-61
2022/09/05 11:54:02;;;;;;;1.60;1.50;;;33.70;99.90;;;;;;6066745;23;20633;-61
2022/09/05 11:57:16;;;;;;;4.10;1.50;;;33.70;99.90;;;;;;6065803;23;20182;-61
2022/09/05 12:00:14;;;;;;;1.60;1.50;;;33.50;99.70;;;;;;6041648;23;20174;-61
2022/09/05 12:03:42;;;;;;;1.98;1.58;;;33.40;99.90;;;;;;6067392;23;20164;-61
2022/09/05 12:07:04;;;;;;;1.63;1.60;;;33.20;99.90;;;;;;5951616;24;20175;-61
2022/09/05 12:10:12;;;;;;;2.88;1.60;;;32.90;99.90;;;;;;6066364;23;20215;-61
2022/09/05 12:13:20;;;;;;;1.90;1.80;;;33.10;99.80;;;;;;6066728;23;20169;-61
2022/09/05 12:16:32;;;;;;;1.70;1.67;;;33.50;99.60;;;;;;6067208;23;20183;-61
2022/09/05 12:19:22;;;;;;;2.17;1.73;;;33.60;99.40;;;;;;6017290;23;20196;-61
2022/09/05 12:22:11;;;;;;;1.95;1.65;;;33.40;99.10;;;;;;6067252;23;20720;-61
2022/09/05 12:25:12;;;;;;;2.40;1.60;;;32.90;99.80;;;;;;6066842;23;20187;-61
2022/09/05 12:28:06;;;;;;;2.08;1.88;;;32.60;99.80;;;;;;6066229;23;20502;-61
2022/09/05 12:31:11;;;;;;;3.90;1.60;;;32.60;99.90;;;;;;6066415;23;20482;-61
2022/09/05 12:34:08;;;;;;;2.40;1.58;;;32.70;99.50;;;;;;6065954;23;20179;-61
2022/09/05 12:36:57;;;;;;;1.98;1.70;;;32.60;99.90;;;;;;6066217;23;20610;-61
2022/09/05 12:39:52;;;;;;;2.10;1.77;;;32.90;99.80;;;;;;6066917;23;20476;-61
2022/09/05 12:42:44;;;;;;;3.42;1.80;;;32.80;99.40;;;;;;6065973;23;20540;-61
2022/09/05 12:45:42;;;;;;;6.05;1.88;;;32.90;99.60;;;;;;6066481;23;20176;-61
2022/09/05 12:48:15;;;;;;;2.53;1.90;;;32.90;99.90;;;;;;6067023;23;20161;-61
2022/09/05 12:50:55;;;;;;;2.53;1.80;;;32.80;99.20;;;;;;6066645;23;20184;-61
2022/09/05 12:53:25;;;;;;;1.83;1.73;;;32.50;99.10;;;;;;6067094;23;20161;-61
2022/09/05 12:55:57;;;;;;;3.67;1.90;;;32.20;99.70;;;;;;6066385;23;20648;-61
2022/09/05 12:58:50;;;;;;;1.77;1.70;;;32.00;99.50;;;;;;6066947;23;20187;-61
2022/09/05 13:01:42;;;;;;;1.95;1.75;;;32.00;99.90;;;;;;6066724;23;20618;-61
2022/09/05 13:04:35;;;;;;;1.80;1.63;;;32.10;99.90;;;;;;6066674;23;20494;-61
2022/09/05 13:07:35;;;;;;;3.42;1.50;;;32.10;99.70;;;;;;6066014;23;20201;-61
2022/09/05 13:10:14;;;;;;;1.75;1.70;;;32.30;99.90;;;;;;6067253;23;20167;-61
2022/09/05 13:13:05;;;;;;;3.00;1.65;;;32.40;99.90;;;;;;6066260;23;20183;-61
2022/09/05 13:15:55;;;;;;;1.80;1.70;;;32.60;99.90;;;;;;6065279;23;20626;-61
2022/09/05 13:18:27;;;;;;;1.67;1.50;;;32.90;99.90;;;;;;6065583;23;20199;-61
2022/09/05 13:21:06;;;;;;;1.85;1.70;;;33.20;99.90;;;;;;6065585;23;20263;-60
2022/09/05 13:23:41;;;;;;;1.67;1.50;;;33.00;99.90;;;;;;6066145;23;20175;-61
2022/09/05 13:26:15;;;;;;;1.80;1.60;;;32.80;99.70;;;;;;6066796;23;20255;-61
2022/09/05 13:28:51;;;;;;;1.90;1.80;;;32.50;99.90;;;;;;6065961;23;20168;-61
2022/09/05 13:32:03;;;;;;;1.92;1.70;;;32.20;99.90;;;;;;6066412;23;20168;-61
2022/09/05 13:34:55;;;;;;;3.05;1.85;;;32.30;99.90;;;;;;6065871;23;20615;-61
2022/09/05 13:37:47;;;;;;;3.22;1.80;;;32.70;99.90;;;;;;6017388;23;20626;-61
2022/09/05 13:40:41;;;;;;;2.17;1.48;;;32.70;99.90;;;;;;6041293;23;20176;-61
2022/09/05 13:43:12;;;;;;;1.83;1.73;;;32.90;99.90;;;;;;6066047;23;20172;-61
2022/09/05 13:46:02;;;;;;;2.25;1.60;;;33.10;99.90;;;;;;6040396;23;20168;-61
2022/09/05 13:48:41;;;;;;;3.28;1.50;;;33.30;99.80;;;;;;6066188;23;20208;-62
2022/09/05 13:51:36;;;;;;;1.80;1.70;;;33.30;99.70;;;;;;6066549;23;20517;-61
2022/09/05 13:54:35;;;;;;;3.65;1.60;;;33.40;99.90;;;;;;6066387;23;20192;-61
2022/09/05 13:57:36;;;;;;;1.83;1.67;;;33.20;99.50;;;;;;6066911;23;20169;-61
2022/09/05 14:00:52;;;;;;;4.00;1.90;;;33.40;99.60;;;;;;6066990;23;20215;-61
2022/09/05 14:03:54;;;;;;;3.80;1.52;;;33.40;99.80;;;;;;6066424;23;20239;-61
2022/09/05 14:06:50;;;;;;;3.70;1.70;;;33.40;99.10;;;;;;6041417;23;20199;-60
2022/09/05 14:09:39;;;;;;;2.45;1.70;;;33.30;99.20;;;;;;6066573;23;20172;-61
2022/09/05 14:12:17;;;;;;;1.55;1.55;;;33.50;99.00;;;;;;6066728;23;20173;-61
2022/09/05 14:14:50;;;;;;;1.85;1.65;;;33.40;98.40;;;;;;6041213;23;20256;-61
2022/09/05 14:17:55;;;;;;;5.65;2.13;;;33.10;98.30;;;;;;6066507;23;20203;-60
2022/09/05 14:23:20;;;;;;;2.85;1.70;;;32.90;98.90;;;;;;6041366;23;20168;-61
2022/09/05 14:25:53;;;;;;;2.95;1.88;;;32.80;99.10;;;;;;6066176;23;20633;-60
2022/09/05 14:28:27;;;;;;;1.90;1.85;;;32.80;99.10;;;;;;6064037;23;20724;-61
2022/09/05 14:30:58;;;;;;;1.73;1.63;;;32.80;99.20;;;;;;6040001;23;20562;-61
2022/09/05 14:34:04;;;;;;;2.45;1.70;;;32.90;99.70;;;;;;6064995;23;20339;-61
2022/09/05 14:37:00;;;;;;;1.58;1.58;;;33.10;99.10;;;;;;6064861;23;20506;-61
2022/09/05 14:40:19;;;;;;;1.48;1.38;;;33.30;99.90;;;;;;6065682;23;20193;-60
2022/09/05 14:43:29;;;;;;;1.92;1.83;;;33.60;99.20;;;;;;6066612;23;20174;-60
2022/09/05 14:46:20;;;;;;;2.60;1.63;;;33.40;98.70;;;;;;6045133;23;20505;-61